sensor_id;sensor_type;location;lat;lon;timestamp;P1;durP1;ratioP1;P2;durP2;ratioP2
76063;SDS011;64762;52.006;8.424;2023-04-08T00:01:10;17.50;;;7.60;;
76063;SDS011;64762;52.006;8.424;2023-04-08T00:03:36;17.87;;;7.57;;
76063;SDS011;64762;52.006;8.424;2023-04-08T00:06:01;19.83;;;7.15;;
76063;SDS011;64762;52.006;8.424;2023-04-08T00:08:27;17.80;;;7.60;;
76063;SDS011;64762;52.006;8.424;2023-04-08T00:10:53;29.83;;;8.50;;
76063;SDS011;64762;52.006;8.424;2023-04-08T00:13:18;16.20;;;8.00;;
76063;SDS011;64762;52.006;8.424;2023-04-08T00:15:43;23.00;;;8.10;;
76063;SDS011;64762;52.006;8.424;2023-04-08T00:18:09;18.75;;;7.63;;
76063;SDS011;64762;52.006;8.424;2023-04-08T00:20:34;12.77;;;6.13;;
76063;SDS011;64762;52.006;8.424;2023-04-08T00:23:00;19.10;;;8.25;;
76063;SDS011;64762;52.006;8.424;2023-04-08T00:25:25;13.43;;;6.10;;
76063;SDS011;64762;52.006;8.424;2023-04-08T00:27:50;15.93;;;7.37;;
76063;SDS011;64762;52.006;8.424;2023-04-08T00:30:16;21.87;;;8.20;;
76063;SDS011;64762;52.006;8.424;2023-04-08T00:32:41;18.37;;;7.13;;
76063;SDS011;64762;52.006;8.424;2023-04-08T00:35:07;13.35;;;6.43;;
76063;SDS011;64762;52.006;8.424;2023-04-08T00:37:33;17.95;;;7.07;;
76063;SDS011;64762;52.006;8.424;2023-04-08T00:39:59;12.60;;;6.57;;
76063;SDS011;64762;52.006;8.424;2023-04-08T00:42:24;20.08;;;6.95;;
76063;SDS011;64762;52.006;8.424;2023-04-08T00:44:50;15.60;;;6.72;;
76063;SDS011;64762;52.006;8.424;2023-04-08T00:47:15;19.77;;;7.10;;
76063;SDS011;64762;52.006;8.424;2023-04-08T00:49:41;18.77;;;7.70;;
76063;SDS011;64762;52.006;8.424;2023-04-08T00:52:06;16.98;;;7.30;;
76063;SDS011;64762;52.006;8.424;2023-04-08T00:54:32;20.20;;;7.67;;
76063;SDS011;64762;52.006;8.424;2023-04-08T00:56:57;18.50;;;6.50;;
76063;SDS011;64762;52.006;8.424;2023-04-08T00:59:25;15.27;;;7.30;;
76063;SDS011;64762;52.006;8.424;2023-04-08T01:01:58;15.25;;;6.93;;
76063;SDS011;64762;52.006;8.424;2023-04-08T01:06:58;17.30;;;6.63;;
76063;SDS011;64762;52.006;8.424;2023-04-08T01:09:28;17.63;;;6.57;;
76063;SDS011;64762;52.006;8.424;2023-04-08T01:11:55;13.20;;;5.82;;
76063;SDS011;64762;52.006;8.424;2023-04-08T01:14:22;11.57;;;5.38;;
76063;SDS011;64762;52.006;8.424;2023-04-08T01:16:49;16.02;;;5.88;;
76063;SDS011;64762;52.006;8.424;2023-04-08T01:19:17;11.70;;;6.20;;
76063;SDS011;64762;52.006;8.424;2023-04-08T01:21:49;11.63;;;6.13;;
76063;SDS011;64762;52.006;8.424;2023-04-08T01:24:19;13.13;;;5.10;;
76063;SDS011;64762;52.006;8.424;2023-04-08T01:26:48;12.43;;;5.63;;
76063;SDS011;64762;52.006;8.424;2023-04-08T01:29:14;13.10;;;6.13;;
76063;SDS011;64762;52.006;8.424;2023-04-08T01:31:40;14.38;;;6.03;;
76063;SDS011;64762;52.006;8.424;2023-04-08T01:34:06;12.05;;;6.05;;
76063;SDS011;64762;52.006;8.424;2023-04-08T01:36:32;21.67;;;5.40;;
76063;SDS011;64762;52.006;8.424;2023-04-08T01:39:00;12.70;;;5.85;;
76063;SDS011;64762;52.006;8.424;2023-04-08T01:41:26;12.15;;;5.40;;
76063;SDS011;64762;52.006;8.424;2023-04-08T01:43:52;11.07;;;5.30;;
76063;SDS011;64762;52.006;8.424;2023-04-08T01:46:17;10.67;;;5.07;;
76063;SDS011;64762;52.006;8.424;2023-04-08T01:48:44;13.70;;;5.22;;
76063;SDS011;64762;52.006;8.424;2023-04-08T01:51:09;12.75;;;5.32;;
76063;SDS011;64762;52.006;8.424;2023-04-08T01:53:35;10.50;;;4.95;;
76063;SDS011;64762;52.006;8.424;2023-04-08T01:56:02;9.53;;;4.53;;
76063;SDS011;64762;52.006;8.424;2023-04-08T01:58:31;12.35;;;5.13;;
76063;SDS011;64762;52.006;8.424;2023-04-08T02:01:01;14.43;;;5.10;;
76063;SDS011;64762;52.006;8.424;2023-04-08T02:03:28;10.65;;;5.50;;
76063;SDS011;64762;52.006;8.424;2023-04-08T02:05:54;10.48;;;4.72;;
76063;SDS011;64762;52.006;8.424;2023-04-08T02:08:20;13.80;;;5.23;;
76063;SDS011;64762;52.006;8.424;2023-04-08T02:10:45;13.83;;;5.63;;
76063;SDS011;64762;52.006;8.424;2023-04-08T02:13:11;14.00;;;5.50;;
76063;SDS011;64762;52.006;8.424;2023-04-08T02:15:37;11.33;;;5.30;;
76063;SDS011;64762;52.006;8.424;2023-04-08T02:18:12;11.05;;;4.65;;
76063;SDS011;64762;52.006;8.424;2023-04-08T02:20:43;17.90;;;5.32;;
76063;SDS011;64762;52.006;8.424;2023-04-08T02:23:18;12.20;;;5.43;;
76063;SDS011;64762;52.006;8.424;2023-04-08T02:25:44;12.02;;;5.72;;
76063;SDS011;64762;52.006;8.424;2023-04-08T02:28:11;13.88;;;4.97;;
76063;SDS011;64762;52.006;8.424;2023-04-08T02:30:41;13.38;;;5.07;;
76063;SDS011;64762;52.006;8.424;2023-04-08T02:33:07;11.77;;;5.25;;
76063;SDS011;64762;52.006;8.424;2023-04-08T02:35:33;14.88;;;5.57;;
76063;SDS011;64762;52.006;8.424;2023-04-08T02:37:59;12.20;;;5.35;;
76063;SDS011;64762;52.006;8.424;2023-04-08T02:40:25;11.63;;;5.63;;
76063;SDS011;64762;52.006;8.424;2023-04-08T02:42:55;10.95;;;5.15;;
76063;SDS011;64762;52.006;8.424;2023-04-08T02:45:21;14.20;;;5.45;;
76063;SDS011;64762;52.006;8.424;2023-04-08T02:47:47;12.25;;;5.45;;
76063;SDS011;64762;52.006;8.424;2023-04-08T02:50:12;12.90;;;5.25;;
76063;SDS011;64762;52.006;8.424;2023-04-08T02:52:38;12.50;;;5.67;;
76063;SDS011;64762;52.006;8.424;2023-04-08T02:55:03;15.50;;;5.82;;
76063;SDS011;64762;52.006;8.424;2023-04-08T02:57:30;14.63;;;6.07;;
76063;SDS011;64762;52.006;8.424;2023-04-08T02:59:56;12.02;;;5.80;;
76063;SDS011;64762;52.006;8.424;2023-04-08T03:02:21;15.50;;;5.90;;
76063;SDS011;64762;52.006;8.424;2023-04-08T03:04:46;15.13;;;6.07;;
76063;SDS011;64762;52.006;8.424;2023-04-08T03:07:12;15.47;;;6.50;;
76063;SDS011;64762;52.006;8.424;2023-04-08T03:09:37;12.73;;;5.00;;
76063;SDS011;64762;52.006;8.424;2023-04-08T03:12:02;16.10;;;6.77;;
76063;SDS011;64762;52.006;8.424;2023-04-08T03:14:28;16.35;;;6.18;;
76063;SDS011;64762;52.006;8.424;2023-04-08T03:16:53;13.00;;;6.23;;
76063;SDS011;64762;52.006;8.424;2023-04-08T03:19:18;20.57;;;6.50;;
76063;SDS011;64762;52.006;8.424;2023-04-08T03:21:44;15.03;;;6.50;;
76063;SDS011;64762;52.006;8.424;2023-04-08T03:24:09;14.13;;;6.57;;
76063;SDS011;64762;52.006;8.424;2023-04-08T03:26:34;17.25;;;6.40;;
76063;SDS011;64762;52.006;8.424;2023-04-08T03:29:00;8.70;;;4.50;;
76063;SDS011;64762;52.006;8.424;2023-04-08T03:31:25;12.30;;;6.22;;
76063;SDS011;64762;52.006;8.424;2023-04-08T03:33:51;14.50;;;6.72;;
76063;SDS011;64762;52.006;8.424;2023-04-08T03:36:16;13.70;;;6.70;;
76063;SDS011;64762;52.006;8.424;2023-04-08T03:38:42;20.93;;;6.47;;
76063;SDS011;64762;52.006;8.424;2023-04-08T03:41:08;21.70;;;7.30;;
76063;SDS011;64762;52.006;8.424;2023-04-08T03:43:33;17.00;;;7.33;;
76063;SDS011;64762;52.006;8.424;2023-04-08T03:45:59;14.47;;;6.87;;
76063;SDS011;64762;52.006;8.424;2023-04-08T03:48:24;22.87;;;7.67;;
76063;SDS011;64762;52.006;8.424;2023-04-08T03:50:49;16.57;;;7.03;;
76063;SDS011;64762;52.006;8.424;2023-04-08T03:53:14;17.07;;;7.20;;
76063;SDS011;64762;52.006;8.424;2023-04-08T03:55:40;16.40;;;7.47;;
76063;SDS011;64762;52.006;8.424;2023-04-08T03:58:05;14.53;;;7.07;;
76063;SDS011;64762;52.006;8.424;2023-04-08T04:00:30;16.37;;;6.87;;
76063;SDS011;64762;52.006;8.424;2023-04-08T04:02:56;18.80;;;7.37;;
76063;SDS011;64762;52.006;8.424;2023-04-08T04:05:21;14.93;;;7.60;;
76063;SDS011;64762;52.006;8.424;2023-04-08T04:07:46;15.97;;;7.03;;
76063;SDS011;64762;52.006;8.424;2023-04-08T04:10:12;20.13;;;7.83;;
76063;SDS011;64762;52.006;8.424;2023-04-08T04:12:37;20.77;;;8.02;;
76063;SDS011;64762;52.006;8.424;2023-04-08T04:15:03;21.33;;;8.73;;
76063;SDS011;64762;52.006;8.424;2023-04-08T04:17:28;18.63;;;7.28;;
76063;SDS011;64762;52.006;8.424;2023-04-08T04:19:54;20.60;;;8.63;;
76063;SDS011;64762;52.006;8.424;2023-04-08T04:22:19;20.53;;;8.57;;
76063;SDS011;64762;52.006;8.424;2023-04-08T04:24:48;23.80;;;9.60;;
76063;SDS011;64762;52.006;8.424;2023-04-08T04:27:13;19.48;;;8.35;;
76063;SDS011;64762;52.006;8.424;2023-04-08T04:29:41;21.45;;;9.57;;
76063;SDS011;64762;52.006;8.424;2023-04-08T04:32:06;19.80;;;8.60;;
76063;SDS011;64762;52.006;8.424;2023-04-08T04:34:32;25.35;;;9.18;;
76063;SDS011;64762;52.006;8.424;2023-04-08T04:36:57;20.67;;;9.03;;
76063;SDS011;64762;52.006;8.424;2023-04-08T04:39:23;20.93;;;8.77;;
76063;SDS011;64762;52.006;8.424;2023-04-08T04:41:48;22.33;;;8.97;;
76063;SDS011;64762;52.006;8.424;2023-04-08T04:44:13;22.93;;;8.93;;
76063;SDS011;64762;52.006;8.424;2023-04-08T04:46:39;21.48;;;9.13;;
76063;SDS011;64762;52.006;8.424;2023-04-08T04:49:05;25.10;;;9.80;;
76063;SDS011;64762;52.006;8.424;2023-04-08T04:51:30;20.50;;;7.90;;
76063;SDS011;64762;52.006;8.424;2023-04-08T04:53:57;21.33;;;8.70;;
76063;SDS011;64762;52.006;8.424;2023-04-08T04:56:22;21.13;;;8.27;;
76063;SDS011;64762;52.006;8.424;2023-04-08T04:58:47;18.90;;;8.17;;
76063;SDS011;64762;52.006;8.424;2023-04-08T05:01:13;26.43;;;10.20;;
76063;SDS011;64762;52.006;8.424;2023-04-08T05:03:41;22.63;;;8.90;;
76063;SDS011;64762;52.006;8.424;2023-04-08T05:06:06;22.15;;;9.27;;
76063;SDS011;64762;52.006;8.424;2023-04-08T05:08:31;22.10;;;8.23;;
76063;SDS011;64762;52.006;8.424;2023-04-08T05:10:57;18.60;;;7.97;;
76063;SDS011;64762;52.006;8.424;2023-04-08T05:13:25;19.55;;;8.77;;
76063;SDS011;64762;52.006;8.424;2023-04-08T05:15:51;18.23;;;7.97;;
76063;SDS011;64762;52.006;8.424;2023-04-08T05:18:16;12.27;;;5.50;;
76063;SDS011;64762;52.006;8.424;2023-04-08T05:20:41;17.00;;;7.03;;
76063;SDS011;64762;52.006;8.424;2023-04-08T05:23:07;19.83;;;7.90;;
76063;SDS011;64762;52.006;8.424;2023-04-08T05:25:32;16.13;;;6.25;;
76063;SDS011;64762;52.006;8.424;2023-04-08T05:27:57;17.53;;;7.03;;
76063;SDS011;64762;52.006;8.424;2023-04-08T05:30:23;11.20;;;5.37;;
76063;SDS011;64762;52.006;8.424;2023-04-08T05:32:48;15.57;;;6.50;;
76063;SDS011;64762;52.006;8.424;2023-04-08T05:35:14;17.15;;;7.32;;
76063;SDS011;64762;52.006;8.424;2023-04-08T05:37:40;9.73;;;4.43;;
76063;SDS011;64762;52.006;8.424;2023-04-08T05:40:05;13.20;;;3.90;;
76063;SDS011;64762;52.006;8.424;2023-04-08T05:42:31;18.58;;;7.63;;
76063;SDS011;64762;52.006;8.424;2023-04-08T05:44:56;17.83;;;7.68;;
76063;SDS011;64762;52.006;8.424;2023-04-08T05:47:22;18.45;;;7.93;;
76063;SDS011;64762;52.006;8.424;2023-04-08T05:49:47;18.23;;;7.20;;
76063;SDS011;64762;52.006;8.424;2023-04-08T05:52:12;17.93;;;7.87;;
76063;SDS011;64762;52.006;8.424;2023-04-08T05:54:37;19.43;;;7.50;;
76063;SDS011;64762;52.006;8.424;2023-04-08T05:57:03;21.37;;;7.23;;
76063;SDS011;64762;52.006;8.424;2023-04-08T05:59:28;18.43;;;7.67;;
76063;SDS011;64762;52.006;8.424;2023-04-08T06:01:53;18.40;;;7.13;;
76063;SDS011;64762;52.006;8.424;2023-04-08T06:04:19;17.60;;;7.75;;
76063;SDS011;64762;52.006;8.424;2023-04-08T06:06:44;17.98;;;6.93;;
76063;SDS011;64762;52.006;8.424;2023-04-08T06:09:10;18.83;;;7.50;;
76063;SDS011;64762;52.006;8.424;2023-04-08T06:11:35;12.03;;;5.30;;
76063;SDS011;64762;52.006;8.424;2023-04-08T06:14:00;21.60;;;7.87;;
76063;SDS011;64762;52.006;8.424;2023-04-08T06:16:25;17.27;;;7.60;;
76063;SDS011;64762;52.006;8.424;2023-04-08T06:18:51;18.83;;;7.65;;
76063;SDS011;64762;52.006;8.424;2023-04-08T06:21:16;18.52;;;7.90;;
76063;SDS011;64762;52.006;8.424;2023-04-08T06:23:42;11.90;;;4.90;;
76063;SDS011;64762;52.006;8.424;2023-04-08T06:26:08;18.30;;;6.93;;
76063;SDS011;64762;52.006;8.424;2023-04-08T06:28:33;21.85;;;7.72;;
76063;SDS011;64762;52.006;8.424;2023-04-08T06:30:58;17.37;;;7.27;;
76063;SDS011;64762;52.006;8.424;2023-04-08T06:33:24;18.98;;;7.65;;
76063;SDS011;64762;52.006;8.424;2023-04-08T06:35:49;16.80;;;7.35;;
76063;SDS011;64762;52.006;8.424;2023-04-08T06:38:15;14.80;;;6.47;;
76063;SDS011;64762;52.006;8.424;2023-04-08T06:40:40;18.20;;;8.23;;
76063;SDS011;64762;52.006;8.424;2023-04-08T06:43:06;13.32;;;6.18;;
76063;SDS011;64762;52.006;8.424;2023-04-08T06:45:32;27.75;;;8.45;;
76063;SDS011;64762;52.006;8.424;2023-04-08T06:47:57;18.67;;;8.23;;
76063;SDS011;64762;52.006;8.424;2023-04-08T06:50:23;13.40;;;5.90;;
76063;SDS011;64762;52.006;8.424;2023-04-08T06:52:48;20.13;;;8.82;;
76063;SDS011;64762;52.006;8.424;2023-04-08T06:55:13;12.23;;;4.93;;
76063;SDS011;64762;52.006;8.424;2023-04-08T06:57:39;20.13;;;7.43;;
76063;SDS011;64762;52.006;8.424;2023-04-08T07:00:04;19.00;;;8.07;;
76063;SDS011;64762;52.006;8.424;2023-04-08T07:02:30;22.60;;;7.82;;
76063;SDS011;64762;52.006;8.424;2023-04-08T07:04:56;15.95;;;6.35;;
76063;SDS011;64762;52.006;8.424;2023-04-08T07:07:22;22.57;;;8.73;;
76063;SDS011;64762;52.006;8.424;2023-04-08T07:09:48;21.13;;;8.60;;
76063;SDS011;64762;52.006;8.424;2023-04-08T07:12:13;21.40;;;8.75;;
76063;SDS011;64762;52.006;8.424;2023-04-08T07:14:38;12.63;;;5.17;;
76063;SDS011;64762;52.006;8.424;2023-04-08T07:17:04;11.00;;;5.30;;
76063;SDS011;64762;52.006;8.424;2023-04-08T07:19:30;25.15;;;9.35;;
76063;SDS011;64762;52.006;8.424;2023-04-08T07:21:55;25.23;;;8.98;;
76063;SDS011;64762;52.006;8.424;2023-04-08T07:24:21;20.63;;;8.55;;
76063;SDS011;64762;52.006;8.424;2023-04-08T07:26:47;27.95;;;11.25;;
76063;SDS011;64762;52.006;8.424;2023-04-08T07:29:12;21.70;;;9.37;;
76063;SDS011;64762;52.006;8.424;2023-04-08T07:31:37;29.53;;;9.60;;
76063;SDS011;64762;52.006;8.424;2023-04-08T07:34:03;20.53;;;7.60;;
76063;SDS011;64762;52.006;8.424;2023-04-08T07:36:28;23.97;;;9.93;;
76063;SDS011;64762;52.006;8.424;2023-04-08T07:38:53;29.40;;;10.10;;
76063;SDS011;64762;52.006;8.424;2023-04-08T07:41:19;23.77;;;9.40;;
76063;SDS011;64762;52.006;8.424;2023-04-08T07:43:45;27.65;;;10.10;;
76063;SDS011;64762;52.006;8.424;2023-04-08T07:46:10;20.00;;;8.00;;
76063;SDS011;64762;52.006;8.424;2023-04-08T07:48:35;24.87;;;10.10;;
76063;SDS011;64762;52.006;8.424;2023-04-08T07:51:08;23.90;;;9.53;;
76063;SDS011;64762;52.006;8.424;2023-04-08T07:53:33;22.75;;;9.02;;
76063;SDS011;64762;52.006;8.424;2023-04-08T07:55:59;21.02;;;8.63;;
76063;SDS011;64762;52.006;8.424;2023-04-08T07:58:25;25.83;;;8.88;;
76063;SDS011;64762;52.006;8.424;2023-04-08T08:00:50;19.48;;;7.45;;
76063;SDS011;64762;52.006;8.424;2023-04-08T08:03:15;12.13;;;6.10;;
76063;SDS011;64762;52.006;8.424;2023-04-08T08:05:41;18.83;;;7.18;;
76063;SDS011;64762;52.006;8.424;2023-04-08T08:08:06;22.60;;;8.73;;
76063;SDS011;64762;52.006;8.424;2023-04-08T08:10:32;24.10;;;9.27;;
76063;SDS011;64762;52.006;8.424;2023-04-08T08:12:57;23.05;;;8.95;;
76063;SDS011;64762;52.006;8.424;2023-04-08T08:15:23;19.17;;;7.00;;
76063;SDS011;64762;52.006;8.424;2023-04-08T08:17:48;15.53;;;6.43;;
76063;SDS011;64762;52.006;8.424;2023-04-08T08:20:13;21.43;;;8.73;;
76063;SDS011;64762;52.006;8.424;2023-04-08T08:22:39;19.33;;;8.20;;
76063;SDS011;64762;52.006;8.424;2023-04-08T08:25:05;26.10;;;8.37;;
76063;SDS011;64762;52.006;8.424;2023-04-08T08:27:31;23.33;;;8.93;;
76063;SDS011;64762;52.006;8.424;2023-04-08T08:29:58;23.40;;;9.57;;
76063;SDS011;64762;52.006;8.424;2023-04-08T08:32:23;27.13;;;9.50;;
76063;SDS011;64762;52.006;8.424;2023-04-08T08:34:49;20.77;;;8.63;;
76063;SDS011;64762;52.006;8.424;2023-04-08T08:37:14;23.93;;;9.87;;
76063;SDS011;64762;52.006;8.424;2023-04-08T08:39:39;26.23;;;10.23;;
76063;SDS011;64762;52.006;8.424;2023-04-08T08:42:05;22.58;;;9.57;;
76063;SDS011;64762;52.006;8.424;2023-04-08T08:44:30;23.83;;;9.27;;
76063;SDS011;64762;52.006;8.424;2023-04-08T08:46:56;21.52;;;8.48;;
76063;SDS011;64762;52.006;8.424;2023-04-08T08:49:21;24.07;;;9.20;;
76063;SDS011;64762;52.006;8.424;2023-04-08T08:51:47;26.42;;;9.60;;
76063;SDS011;64762;52.006;8.424;2023-04-08T08:54:14;14.98;;;7.32;;
76063;SDS011;64762;52.006;8.424;2023-04-08T08:56:40;27.77;;;9.95;;
76063;SDS011;64762;52.006;8.424;2023-04-08T08:59:07;22.58;;;9.02;;
76063;SDS011;64762;52.006;8.424;2023-04-08T09:01:33;22.55;;;8.80;;
76063;SDS011;64762;52.006;8.424;2023-04-08T09:04:12;26.15;;;7.63;;
76063;SDS011;64762;52.006;8.424;2023-04-08T09:06:39;23.17;;;10.15;;
76063;SDS011;64762;52.006;8.424;2023-04-08T09:09:05;16.65;;;6.75;;
76063;SDS011;64762;52.006;8.424;2023-04-08T09:11:34;28.15;;;10.18;;
76063;SDS011;64762;52.006;8.424;2023-04-08T09:14:00;26.60;;;9.68;;
76063;SDS011;64762;52.006;8.424;2023-04-08T09:16:25;29.13;;;10.40;;
76063;SDS011;64762;52.006;8.424;2023-04-08T09:18:51;25.27;;;11.00;;
76063;SDS011;64762;52.006;8.424;2023-04-08T09:21:17;23.33;;;6.97;;
76063;SDS011;64762;52.006;8.424;2023-04-08T09:23:47;29.98;;;10.20;;
76063;SDS011;64762;52.006;8.424;2023-04-08T09:26:15;28.73;;;12.10;;
76063;SDS011;64762;52.006;8.424;2023-04-08T09:29:01;27.90;;;10.65;;
76063;SDS011;64762;52.006;8.424;2023-04-08T09:31:29;26.90;;;10.40;;
76063;SDS011;64762;52.006;8.424;2023-04-08T09:33:56;22.45;;;9.57;;
76063;SDS011;64762;52.006;8.424;2023-04-08T09:36:22;26.35;;;10.15;;
76063;SDS011;64762;52.006;8.424;2023-04-08T09:38:48;27.55;;;9.65;;
76063;SDS011;64762;52.006;8.424;2023-04-08T09:41:15;27.08;;;9.98;;
76063;SDS011;64762;52.006;8.424;2023-04-08T09:43:46;28.95;;;10.75;;
76063;SDS011;64762;52.006;8.424;2023-04-08T09:46:16;30.08;;;10.45;;
76063;SDS011;64762;52.006;8.424;2023-04-08T09:48:49;28.80;;;11.45;;
76063;SDS011;64762;52.006;8.424;2023-04-08T09:51:19;31.35;;;10.40;;
76063;SDS011;64762;52.006;8.424;2023-04-08T09:53:48;30.20;;;10.80;;
76063;SDS011;64762;52.006;8.424;2023-04-08T09:56:21;28.08;;;9.40;;
76063;SDS011;64762;52.006;8.424;2023-04-08T10:01:31;22.55;;;9.32;;
76063;SDS011;64762;52.006;8.424;2023-04-08T10:04:03;33.03;;;11.95;;
76063;SDS011;64762;52.006;8.424;2023-04-08T10:06:30;27.92;;;10.20;;
76063;SDS011;64762;52.006;8.424;2023-04-08T10:08:56;33.70;;;11.70;;
76063;SDS011;64762;52.006;8.424;2023-04-08T10:11:21;30.98;;;11.40;;
76063;SDS011;64762;52.006;8.424;2023-04-08T10:13:47;33.33;;;11.80;;
76063;SDS011;64762;52.006;8.424;2023-04-08T10:16:19;31.17;;;11.77;;
76063;SDS011;64762;52.006;8.424;2023-04-08T10:18:46;30.70;;;12.30;;
76063;SDS011;64762;52.006;8.424;2023-04-08T10:21:32;31.65;;;11.13;;
76063;SDS011;64762;52.006;8.424;2023-04-08T10:24:10;22.05;;;9.75;;
76063;SDS011;64762;52.006;8.424;2023-04-08T10:26:36;37.83;;;12.35;;
76063;SDS011;64762;52.006;8.424;2023-04-08T10:31:51;13.98;;;6.38;;
76063;SDS011;64762;52.006;8.424;2023-04-08T10:34:23;28.48;;;11.27;;
76063;SDS011;64762;52.006;8.424;2023-04-08T10:36:50;32.97;;;12.05;;
76063;SDS011;64762;52.006;8.424;2023-04-08T10:39:16;31.50;;;11.48;;
76063;SDS011;64762;52.006;8.424;2023-04-08T10:41:45;32.33;;;12.15;;
76063;SDS011;64762;52.006;8.424;2023-04-08T10:44:14;35.38;;;11.70;;
76063;SDS011;64762;52.006;8.424;2023-04-08T10:46:47;34.53;;;11.77;;
76063;SDS011;64762;52.006;8.424;2023-04-08T10:49:13;34.90;;;12.60;;
76063;SDS011;64762;52.006;8.424;2023-04-08T10:51:39;29.42;;;12.68;;
76063;SDS011;64762;52.006;8.424;2023-04-08T10:54:06;35.58;;;13.65;;
76063;SDS011;64762;52.006;8.424;2023-04-08T10:56:35;33.83;;;11.52;;
76063;SDS011;64762;52.006;8.424;2023-04-08T10:59:01;37.97;;;13.38;;
76063;SDS011;64762;52.006;8.424;2023-04-08T11:01:27;37.17;;;13.30;;
76063;SDS011;64762;52.006;8.424;2023-04-08T11:04:05;29.83;;;11.77;;
76063;SDS011;64762;52.006;8.424;2023-04-08T11:06:31;34.22;;;12.55;;
76063;SDS011;64762;52.006;8.424;2023-04-08T11:09:01;37.35;;;12.60;;
76063;SDS011;64762;52.006;8.424;2023-04-08T11:11:28;33.45;;;13.48;;
76063;SDS011;64762;52.006;8.424;2023-04-08T11:13:55;37.10;;;12.00;;
76063;SDS011;64762;52.006;8.424;2023-04-08T11:16:21;36.00;;;11.90;;
76063;SDS011;64762;52.006;8.424;2023-04-08T11:18:46;43.08;;;13.77;;
76063;SDS011;64762;52.006;8.424;2023-04-08T11:21:12;38.17;;;12.15;;
76063;SDS011;64762;52.006;8.424;2023-04-08T11:23:37;32.10;;;12.23;;
76063;SDS011;64762;52.006;8.424;2023-04-08T11:26:02;35.20;;;12.80;;
76063;SDS011;64762;52.006;8.424;2023-04-08T11:28:28;31.55;;;11.73;;
76063;SDS011;64762;52.006;8.424;2023-04-08T11:30:54;38.03;;;12.82;;
76063;SDS011;64762;52.006;8.424;2023-04-08T11:33:19;28.10;;;9.85;;
76063;SDS011;64762;52.006;8.424;2023-04-08T11:35:45;31.58;;;11.73;;
76063;SDS011;64762;52.006;8.424;2023-04-08T11:38:15;32.53;;;11.48;;
76063;SDS011;64762;52.006;8.424;2023-04-08T11:40:40;26.70;;;9.90;;
76063;SDS011;64762;52.006;8.424;2023-04-08T11:43:16;34.53;;;12.13;;
76063;SDS011;64762;52.006;8.424;2023-04-08T11:45:41;20.27;;;7.87;;
76063;SDS011;64762;52.006;8.424;2023-04-08T11:48:10;27.67;;;10.77;;
76063;SDS011;64762;52.006;8.424;2023-04-08T11:50:38;44.25;;;12.32;;
76063;SDS011;64762;52.006;8.424;2023-04-08T11:53:03;34.20;;;11.88;;
76063;SDS011;64762;52.006;8.424;2023-04-08T11:55:29;39.57;;;13.30;;
76063;SDS011;64762;52.006;8.424;2023-04-08T11:57:56;34.42;;;14.35;;
76063;SDS011;64762;52.006;8.424;2023-04-08T12:00:26;41.35;;;13.55;;
76063;SDS011;64762;52.006;8.424;2023-04-08T12:02:52;33.65;;;13.13;;
76063;SDS011;64762;52.006;8.424;2023-04-08T12:05:17;30.75;;;11.77;;
76063;SDS011;64762;52.006;8.424;2023-04-08T12:07:43;31.87;;;11.27;;
76063;SDS011;64762;52.006;8.424;2023-04-08T12:10:08;48.87;;;13.87;;
76063;SDS011;64762;52.006;8.424;2023-04-08T12:12:34;27.50;;;8.57;;
76063;SDS011;64762;52.006;8.424;2023-04-08T12:15:00;41.58;;;14.00;;
76063;SDS011;64762;52.006;8.424;2023-04-08T12:17:25;37.77;;;13.23;;
76063;SDS011;64762;52.006;8.424;2023-04-08T12:19:50;41.60;;;15.10;;
76063;SDS011;64762;52.006;8.424;2023-04-08T12:22:16;42.83;;;14.57;;
76063;SDS011;64762;52.006;8.424;2023-04-08T12:24:41;43.65;;;14.10;;
76063;SDS011;64762;52.006;8.424;2023-04-08T12:27:06;40.47;;;14.37;;
76063;SDS011;64762;52.006;8.424;2023-04-08T12:29:32;38.27;;;12.53;;
76063;SDS011;64762;52.006;8.424;2023-04-08T12:31:57;34.80;;;12.73;;
76063;SDS011;64762;52.006;8.424;2023-04-08T12:34:23;41.58;;;12.60;;
76063;SDS011;64762;52.006;8.424;2023-04-08T12:36:48;40.28;;;13.48;;
76063;SDS011;64762;52.006;8.424;2023-04-08T12:39:14;40.10;;;14.07;;
76063;SDS011;64762;52.006;8.424;2023-04-08T12:41:39;30.73;;;11.13;;
76063;SDS011;64762;52.006;8.424;2023-04-08T12:44:05;37.50;;;13.68;;
76063;SDS011;64762;52.006;8.424;2023-04-08T12:46:30;37.13;;;12.60;;
76063;SDS011;64762;52.006;8.424;2023-04-08T12:48:56;38.53;;;11.55;;
76063;SDS011;64762;52.006;8.424;2023-04-08T12:51:22;32.47;;;13.30;;
76063;SDS011;64762;52.006;8.424;2023-04-08T12:53:50;34.70;;;12.40;;
76063;SDS011;64762;52.006;8.424;2023-04-08T12:56:15;36.10;;;12.63;;
76063;SDS011;64762;52.006;8.424;2023-04-08T12:58:40;34.53;;;13.40;;
76063;SDS011;64762;52.006;8.424;2023-04-08T13:01:06;22.97;;;9.00;;
76063;SDS011;64762;52.006;8.424;2023-04-08T13:03:31;41.30;;;15.37;;
76063;SDS011;64762;52.006;8.424;2023-04-08T13:05:56;34.17;;;11.90;;
76063;SDS011;64762;52.006;8.424;2023-04-08T13:08:23;23.25;;;9.52;;
76063;SDS011;64762;52.006;8.424;2023-04-08T13:10:48;34.63;;;12.77;;
76063;SDS011;64762;52.006;8.424;2023-04-08T13:13:14;26.87;;;9.80;;
76063;SDS011;64762;52.006;8.424;2023-04-08T13:15:39;33.50;;;12.13;;
76063;SDS011;64762;52.006;8.424;2023-04-08T13:18:04;39.60;;;13.68;;
76063;SDS011;64762;52.006;8.424;2023-04-08T13:20:30;38.87;;;13.80;;
76063;SDS011;64762;52.006;8.424;2023-04-08T13:22:56;39.22;;;12.40;;
76063;SDS011;64762;52.006;8.424;2023-04-08T13:25:22;39.08;;;12.43;;
76063;SDS011;64762;52.006;8.424;2023-04-08T13:27:47;24.00;;;9.33;;
76063;SDS011;64762;52.006;8.424;2023-04-08T13:30:12;37.97;;;14.23;;
76063;SDS011;64762;52.006;8.424;2023-04-08T13:32:38;37.90;;;13.73;;
76063;SDS011;64762;52.006;8.424;2023-04-08T13:35:03;32.73;;;11.80;;
76063;SDS011;64762;52.006;8.424;2023-04-08T13:37:29;37.00;;;14.05;;
76063;SDS011;64762;52.006;8.424;2023-04-08T13:39:54;38.42;;;13.02;;
76063;SDS011;64762;52.006;8.424;2023-04-08T13:42:20;40.35;;;13.57;;
76063;SDS011;64762;52.006;8.424;2023-04-08T13:44:46;36.60;;;11.20;;
76063;SDS011;64762;52.006;8.424;2023-04-08T13:47:11;40.27;;;15.23;;
76063;SDS011;64762;52.006;8.424;2023-04-08T13:49:37;39.20;;;14.32;;
76063;SDS011;64762;52.006;8.424;2023-04-08T13:52:02;42.22;;;13.23;;
76063;SDS011;64762;52.006;8.424;2023-04-08T13:54:27;34.90;;;13.37;;
76063;SDS011;64762;52.006;8.424;2023-04-08T13:56:53;39.13;;;14.43;;
76063;SDS011;64762;52.006;8.424;2023-04-08T13:59:18;31.83;;;12.17;;
76063;SDS011;64762;52.006;8.424;2023-04-08T14:01:43;38.93;;;14.67;;
76063;SDS011;64762;52.006;8.424;2023-04-08T14:04:09;39.80;;;14.13;;
76063;SDS011;64762;52.006;8.424;2023-04-08T14:06:34;35.37;;;13.23;;
76063;SDS011;64762;52.006;8.424;2023-04-08T14:09:00;38.50;;;13.85;;
76063;SDS011;64762;52.006;8.424;2023-04-08T14:11:25;45.80;;;15.30;;
76063;SDS011;64762;52.006;8.424;2023-04-08T14:13:51;46.77;;;15.43;;
76063;SDS011;64762;52.006;8.424;2023-04-08T14:16:16;39.27;;;15.53;;
76063;SDS011;64762;52.006;8.424;2023-04-08T14:18:41;42.30;;;14.20;;
76063;SDS011;64762;52.006;8.424;2023-04-08T14:21:06;39.47;;;14.70;;
76063;SDS011;64762;52.006;8.424;2023-04-08T14:23:32;42.30;;;14.93;;
76063;SDS011;64762;52.006;8.424;2023-04-08T14:25:57;35.07;;;13.70;;
76063;SDS011;64762;52.006;8.424;2023-04-08T14:28:25;30.98;;;12.88;;
76063;SDS011;64762;52.006;8.424;2023-04-08T14:30:50;34.53;;;13.43;;
76063;SDS011;64762;52.006;8.424;2023-04-08T14:33:16;38.92;;;13.73;;